^^
Datos históricos de la estación: Murcia-Puente Tocinos
Diario Informe para Febrero 23, 2019 Unidades:  Ambas    Ingés   Métrico
Diario Semanal Mensual Anual
  Máxima: Mínima: Promedio:
Temperatura: 85.6 °F /  29.8 °C 70.2 °F /  21.2 °C 77.7 °F /  25.4 °C
Punto de rocio: 69.4 °F /  20.8 °C 57.4 °F /  14.1 °C 64.8 °F /  18.2 °C
Humedad: 83% 39.5% 66%
Velocidad viento: 11.2mph /  18km/h - 4.7mph /  7.5km/h
Racha viento: 21mph /  33.8km/h - -
Viento- - SE
Presión: 30.1 in /  1019.1 hPa 30 in /  1015.8 hPa -
Precipitación: 0 in /  0.0 mm    
 
 
Tabla de datos para Febrero 23, 2019
Hora Temperatura Punto de rocio Presión Viento Velocidad viento Racha viento Humedad Intensidad lluvia(por hora) Nubes
00:04 75.6 °F /  24.2 °C 69.1 °F /  20.6 °C 30.1in /  1018.5hPa Calm   3mph /  4.8km/h 80.4% 0in /  0.0mm
00:09 75.6 °F /  24.2 °C 69.3 °F /  20.7 °C 30.1in /  1018.5hPa Calm   1.4mph /  2.3km/h 81% 0in /  0.0mm
00:14 75.6 °F /  24.2 °C 69.3 °F /  20.7 °C 30.1in /  1018.5hPa Calm   1.4mph /  2.3km/h 81% 0in /  0.0mm
00:19 75.6 °F /  24.2 °C 69.3 °F /  20.7 °C 30.1in /  1018.5hPa Calm   2.9mph /  4.7km/h 81% 0in /  0.0mm
00:24 75.6 °F /  24.2 °C 69.3 °F /  20.7 °C 30.1in /  1018.5hPa Calm   3mph /  4.8km/h 81% 0in /  0.0mm
00:29 75.6 °F /  24.2 °C 69.3 °F /  20.7 °C 30.1in /  1018.5hPa NNE 0.4mph /  0.6km/h 3mph /  4.8km/h 81% 0in /  0.0mm
00:34 75.7 °F /  24.3 °C 69.4 °F /  20.8 °C 30.1in /  1018.6hPa NNE 1.4mph /  2.2km/h 3.5mph /  5.6km/h 81% 0in /  0.0mm
00:39 75.6 °F /  24.2 °C 69.3 °F /  20.7 °C 30.1in /  1018.6hPa North 1.4mph /  2.2km/h 3.6mph /  5.8km/h 81% 0in /  0.0mm
00:44 75.6 °F /  24.2 °C 69.3 °F /  20.7 °C 30.1in /  1018.6hPa NO 1.4mph /  2.2km/h 4mph /  6.4km/h 81% 0in /  0.0mm
00:49 75.6 °F /  24.2 °C 69.3 °F /  20.7 °C 30.1in /  1018.6hPa NO 1.5mph /  2.4km/h 3mph /  4.8km/h 81% 0in /  0.0mm
00:54 75.4 °F /  24.1 °C 69.1 °F /  20.6 °C 30.1in /  1018.6hPa NO 1.8mph /  2.9km/h 3.5mph /  5.6km/h 81% 0in /  0.0mm
00:59 75.4 °F /  24.1 °C 69.1 °F /  20.6 °C 30.1in /  1018.6hPa NO 1.3mph /  2.1km/h 3mph /  4.8km/h 81% 0in /  0.0mm
01:04 75.4 °F /  24.1 °C 69.1 °F /  20.6 °C 30.1in /  1018.6hPa Calm   1mph /  1.6km/h 80.9% 0in /  0.0mm
01:09 75.4 °F /  24.1 °C 68.7 °F /  20.4 °C 30.1in /  1018.5hPa Calm   3.5mph /  5.6km/h 80% 0in /  0.0mm
01:14 75.4 °F /  24.1 °C 68.7 °F /  20.4 °C 30.1in /  1018.5hPa Calm   3mph /  4.8km/h 80% 0in /  0.0mm
01:19 75.2 °F /  24 °C 68.7 °F /  20.4 °C 30.1in /  1018.5hPa Oeste 0.4mph /  0.6km/h 4.6mph /  7.4km/h 80% 0in /  0.0mm
01:24 75 °F /  23.9 °C 68.9 °F /  20.5 °C 30.1in /  1018.4hPa Oeste 1.4mph /  2.2km/h 5mph /  8km/h 80.9% 0in /  0.0mm
01:29 74.8 °F /  23.8 °C 68.7 °F /  20.4 °C 30.1in /  1018.4hPa Oeste 1.7mph /  2.8km/h 5mph /  8km/h 81% 0in /  0.0mm
01:34 74.8 °F /  23.8 °C 68.5 °F /  20.3 °C 30.1in /  1018.6hPa Oeste 2.9mph /  4.7km/h 5mph /  8km/h 81% 0in /  0.0mm
01:39 74.7 °F /  23.7 °C 68.7 °F /  20.4 °C 30.1in /  1018.6hPa Oeste 2.7mph /  4.3km/h 5mph /  8km/h 82% 0in /  0.0mm
01:44 74.7 °F /  23.7 °C 68.7 °F /  20.4 °C 30.1in /  1018.6hPa Oeste 2mph /  3.2km/h 5mph /  8km/h 82% 0in /  0.0mm
01:49 74.7 °F /  23.7 °C 68.7 °F /  20.4 °C 30.1in /  1018.6hPa Oeste 1.5mph /  2.4km/h   82% 0in /  0.0mm
01:54 74.7 °F /  23.7 °C 68.9 °F /  20.5 °C 30.1in /  1018.5hPa Calm     82% 0in /  0.0mm
01:59 74.7 °F /  23.7 °C 68.9 °F /  20.5 °C 30.1in /  1018.5hPa Calm   3.5mph /  5.6km/h 82% 0in /  0.0mm
02:04 74.7 °F /  23.7 °C 68.7 °F /  20.4 °C 30.1in /  1018.5hPa Calm   3.6mph /  5.8km/h 82% 0in /  0.0mm
02:09 74.7 °F /  23.7 °C 68.7 °F /  20.4 °C 30.1in /  1018.5hPa NNO 0.5mph /  0.8km/h 4mph /  6.4km/h 82% 0in /  0.0mm
02:14 74.7 °F /  23.7 °C 68.7 °F /  20.4 °C 30.1in /  1018.5hPa NNO 2mph /  3.2km/h 3mph /  4.8km/h 82% 0in /  0.0mm
02:19 74.7 °F /  23.7 °C 68.7 °F /  20.4 °C 30.1in /  1018.5hPa NNO 1.6mph /  2.5km/h   82% 0in /  0.0mm
02:24 74.5 °F /  23.6 °C 68.5 °F /  20.3 °C 30.1in /  1018.5hPa Calm   4.6mph /  7.4km/h 82% 0in /  0.0mm
02:29 74.5 °F /  23.6 °C 68.5 °F /  20.3 °C 30.1in /  1018.5hPa Oeste 0.4mph /  0.7km/h 5mph /  8km/h 82% 0in /  0.0mm
02:34 74.3 °F /  23.5 °C 68.4 °F /  20.2 °C 30.1in /  1018.5hPa Oeste 1.8mph /  2.9km/h 4mph /  6.4km/h 82% 0in /  0.0mm
02:39 74.1 °F /  23.4 °C 68.4 °F /  20.2 °C 30.1in /  1018.5hPa Oeste 1.9mph /  3.1km/h 5mph /  8km/h 82% 0in /  0.0mm
02:44 74.1 °F /  23.4 °C 68.4 °F /  20.2 °C 30.1in /  1018.5hPa Oeste 2.4mph /  3.9km/h 5mph /  8km/h 82.2% 0in /  0.0mm
02:49 74.1 °F /  23.4 °C 68.4 °F /  20.2 °C 30.1in /  1018.5hPa ONO 2.2mph /  3.6km/h 4mph /  6.4km/h 82.5% 0in /  0.0mm
02:54 74.1 °F /  23.4 °C 68.5 °F /  20.3 °C 30.1in /  1018.3hPa ONO 1.8mph /  2.9km/h 4mph /  6.4km/h 83% 0in /  0.0mm
02:59 74.1 °F /  23.4 °C 68.5 °F /  20.3 °C 30.1in /  1018.3hPa ONO 1.3mph /  2.1km/h 2.3mph /  3.7km/h 82.8% 0in /  0.0mm
03:04 73.9 °F /  23.3 °C 68.2 °F /  20.1 °C 30.1in /  1018.3hPa Calm   2mph /  3.2km/h 82% 0in /  0.0mm
03:09 73.9 °F /  23.3 °C 68.2 °F /  20.1 °C 30.1in /  1018.2hPa Calm     82% 0in /  0.0mm
03:14 73.9 °F /  23.3 °C 68.2 °F /  20.1 °C 30.1in /  1018.2hPa Calm     82% 0in /  0.0mm
03:19 73.8 °F /  23.2 °C 68 °F /  20 °C 30.1in /  1018.3hPa Calm     82% 0in /  0.0mm
03:24 73.8 °F /  23.2 °C 67.8 °F /  19.9 °C 30.1in /  1018.3hPa Calm     82% 0in /  0.0mm
03:29 73.8 °F /  23.2 °C 68 °F /  20 °C 30.1in /  1018.3hPa Calm     82.4% 0in /  0.0mm
03:34 73.8 °F /  23.2 °C 68.2 °F /  20.1 °C 30.1in /  1018.3hPa Calm     83% 0in /  0.0mm
03:39 73.6 °F /  23.1 °C 68.2 °F /  20.1 °C 30.1in /  1018.1hPa Calm     83% 0in /  0.0mm
03:44 73.6 °F /  23.1 °C 68.2 °F /  20.1 °C 30.1in /  1018.1hPa Calm     83% 0in /  0.0mm
03:49 73.8 °F /  23.2 °C 68.2 °F /  20.1 °C 30.1in /  1018.1hPa Calm     83% 0in /  0.0mm
03:54 73.8 °F /  23.2 °C 68.4 °F /  20.2 °C 30.1in /  1018.1hPa Calm   4.7mph /  7.6km/h 83% 0in /  0.0mm
03:59 73.8 °F /  23.2 °C 68.4 °F /  20.2 °C 30.1in /  1018.1hPa Oeste 0.5mph /  0.8km/h 5mph /  8km/h 83% 0in /  0.0mm
04:04 73.8 °F /  23.2 °C 68.4 °F /  20.2 °C 30.1in /  1018.1hPa Oeste 1.8mph /  2.9km/h 5.2mph /  8.4km/h 83% 0in /  0.0mm
04:09 73.8 °F /  23.2 °C 68.2 °F /  20.1 °C 30.1in /  1018.0hPa Oeste 2.1mph /  3.4km/h 5.9mph /  9.5km/h 83% 0in /  0.0mm
04:14 73.6 °F /  23.1 °C 68.2 °F /  20.1 °C 30.1in /  1018.0hPa Oeste 3.1mph /  5km/h 6.9mph /  11.1km/h 83% 0in /  0.0mm
04:19 73.6 °F /  23.1 °C 68.2 °F /  20.1 °C 30.1in /  1018.0hPa Oeste 3.3mph /  5.3km/h 8.5mph /  13.7km/h 83% 0in /  0.0mm
04:24 73.6 °F /  23.1 °C 68.2 °F /  20.1 °C 30.1in /  1017.9hPa Oeste 4mph /  6.5km/h 9mph /  14.5km/h 83% 0in /  0.0mm
04:29 73.6 °F /  23.1 °C 68.2 °F /  20.1 °C 30.1in /  1017.9hPa ONO 4.1mph /  6.6km/h 7mph /  11.3km/h 83% 0in /  0.0mm
04:34 73.6 °F /  23.1 °C 68.2 °F /  20.1 °C 30.1in /  1017.9hPa Oeste 4.3mph /  6.9km/h 7mph /  11.3km/h 83% 0in /  0.0mm
04:39 73.6 °F /  23.1 °C 68.2 °F /  20.1 °C 30.1in /  1017.9hPa Oeste 4mph /  6.5km/h 7mph /  11.3km/h 83% 0in /  0.0mm
04:44 73.6 °F /  23.1 °C 68.2 °F /  20.1 °C 30.1in /  1017.9hPa OSO 3.1mph /  5km/h 5mph /  8km/h 83% 0in /  0.0mm
04:49 73.4 °F /  23 °C 68 °F /  20 °C 30.1in /  1017.9hPa OSO 3mph /  4.9km/h 5mph /  8km/h 83% 0in /  0.0mm
04:54 73.4 °F /  23 °C 67.8 °F /  19.9 °C 30.1in /  1017.9hPa OSO 2.9mph /  4.7km/h 5mph /  8km/h 83% 0in /  0.0mm
04:59 73.4 °F /  23 °C 67.8 °F /  19.9 °C 30.1in /  1017.9hPa SO 2.7mph /  4.4km/h 5mph /  8km/h 83% 0in /  0.0mm
05:04 73.2 °F /  22.9 °C 67.6 °F /  19.8 °C 30.1in /  1017.9hPa SO 2.4mph /  3.9km/h 5.9mph /  9.5km/h 82.6% 0in /  0.0mm
05:09 73 °F /  22.8 °C 67.3 °F /  19.6 °C 30.1in /  1017.9hPa Sur 2.7mph /  4.3km/h 6.2mph /  10km/h 81.8% 0in /  0.0mm
05:14 72.9 °F /  22.7 °C 66.6 °F /  19.2 °C 30.1in /  1017.9hPa SSO 3.6mph /  5.8km/h 6.9mph /  11.1km/h 81% 0in /  0.0mm
05:19 72.5 °F /  22.5 °C 66.2 °F /  19 °C 30.1in /  1017.9hPa SSO 3.9mph /  6.2km/h 7.4mph /  11.9km/h 81% 0in /  0.0mm
05:24 72.1 °F /  22.3 °C 66.2 °F /  19 °C 30.1in /  1017.8hPa SSO 4.7mph /  7.6km/h 7mph /  11.3km/h 81.7% 0in /  0.0mm
05:29 72 °F /  22.2 °C 66.2 °F /  19 °C 30.1in /  1017.8hPa SSO 4.7mph /  7.6km/h 7mph /  11.3km/h 82% 0in /  0.0mm
05:34 72 °F /  22.2 °C 66.2 °F /  19 °C 30.1in /  1017.8hPa SSO 4.7mph /  7.6km/h 7mph /  11.3km/h 82% 0in /  0.0mm
05:39 71.8 °F /  22.1 °C 66 °F /  18.9 °C 30.1in /  1017.7hPa SSO 4.8mph /  7.8km/h 8.1mph /  13km/h 82% 0in /  0.0mm
05:44 71.8 °F /  22.1 °C 66 °F /  18.9 °C 30.1in /  1017.7hPa SSO 5.2mph /  8.4km/h 8mph /  12.9km/h 82.1% 0in /  0.0mm
05:49 71.6 °F /  22 °C 65.8 °F /  18.8 °C 30.1in /  1017.7hPa SSO 5.1mph /  8.2km/h 7mph /  11.3km/h 82.2% 0in /  0.0mm
05:54 71.4 °F /  21.9 °C 65.8 °F /  18.8 °C 30.1in /  1017.7hPa SSO 4.7mph /  7.6km/h 7.4mph /  11.9km/h 82.4% 0in /  0.0mm
05:59 71.4 °F /  21.9 °C 65.7 °F /  18.7 °C 30.1in /  1017.7hPa SSO 4.8mph /  7.8km/h 7mph /  11.3km/h 82% 0in /  0.0mm
06:04 71.4 °F /  21.9 °C 65.7 °F /  18.7 °C 30.1in /  1017.8hPa SSO 5.2mph /  8.4km/h 7mph /  11.3km/h 82% 0in /  0.0mm
06:09 71.4 °F /  21.9 °C 65.7 °F /  18.7 °C 30.1in /  1017.8hPa SSO 4.9mph /  7.9km/h 6.2mph /  10km/h 82% 0in /  0.0mm
06:14 71.2 °F /  21.8 °C 65.5 °F /  18.6 °C 30.1in /  1017.8hPa SO 4mph /  6.5km/h 6mph /  9.7km/h 82% 0in /  0.0mm
06:19 71.2 °F /  21.8 °C 65.5 °F /  18.6 °C 30.1in /  1017.8hPa SO 4mph /  6.5km/h 6.2mph /  10km/h 82% 0in /  0.0mm
06:24 71.2 °F /  21.8 °C 65.5 °F /  18.6 °C 30.1in /  1017.7hPa SSO 4mph /  6.5km/h 6mph /  9.7km/h 82% 0in /  0.0mm
06:29 71.1 °F /  21.7 °C 65.3 °F /  18.5 °C 30.1in /  1017.7hPa SO 3.9mph /  6.3km/h 6.9mph /  11.1km/h 82% 0in /  0.0mm
06:34 71.1 °F /  21.7 °C 65.3 °F /  18.5 °C 30.1in /  1017.7hPa SSO 3.6mph /  5.8km/h 7.4mph /  11.9km/h 81.8% 0in /  0.0mm
06:39 70.9 °F /  21.6 °C 64.9 °F /  18.3 °C 30.1in /  1017.7hPa SSO 3.8mph /  6.1km/h 7mph /  11.3km/h 81.6% 0in /  0.0mm
06:44 70.9 °F /  21.6 °C 65.1 °F /  18.4 °C 30.1in /  1017.7hPa SSO 4.3mph /  6.9km/h 6.9mph /  11.1km/h 82% 0in /  0.0mm
06:49 70.9 °F /  21.6 °C 65.1 °F /  18.4 °C 30.1in /  1017.7hPa SSO 4.3mph /  6.9km/h 7mph /  11.3km/h 82% 0in /  0.0mm
06:54 70.7 °F /  21.5 °C 64.9 °F /  18.3 °C 30.1in /  1017.6hPa SSO 4.3mph /  6.9km/h 8.1mph /  13km/h 82% 0in /  0.0mm
06:59 70.5 °F /  21.4 °C 64.8 °F /  18.2 °C 30.1in /  1017.6hPa SSO 4.5mph /  7.3km/h 8.5mph /  13.7km/h 82% 0in /  0.0mm
07:04 70.3 °F /  21.3 °C 64.8 °F /  18.2 °C 30.1in /  1017.8hPa SSO 5.2mph /  8.4km/h 9mph /  14.5km/h 82% 0in /  0.0mm
07:09 70.3 °F /  21.3 °C 64.6 °F /  18.1 °C 30.1in /  1017.8hPa SSO 5.1mph /  8.2km/h 7mph /  11.3km/h 82% 0in /  0.0mm
07:14 70.3 °F /  21.3 °C 64.6 °F /  18.1 °C 30.1in /  1017.8hPa SSO 4.7mph /  7.6km/h 7mph /  11.3km/h 82% 0in /  0.0mm
07:19 70.3 °F /  21.3 °C 64.6 °F /  18.1 °C 30.1in /  1018.0hPa SO 4.5mph /  7.3km/h 7mph /  11.3km/h 82% 0in /  0.0mm
07:24 70.3 °F /  21.3 °C 64.6 °F /  18.1 °C 30.1in /  1018.0hPa SO 4mph /  6.5km/h 8.5mph /  13.7km/h 82% 0in /  0.0mm
07:29 70.2 °F /  21.2 °C 64.4 °F /  18 °C 30.1in /  1018.0hPa SO 4.2mph /  6.7km/h 9mph /  14.5km/h 82% 0in /  0.0mm
07:34 70.3 °F /  21.3 °C 64.6 °F /  18.1 °C 30.1in /  1018.1hPa SO 4.7mph /  7.6km/h 8mph /  12.9km/h 82% 0in /  0.0mm
07:39 70.2 °F /  21.2 °C 64.4 °F /  18 °C 30.1in /  1018.1hPa SO 4.4mph /  7.1km/h 6mph /  9.7km/h 82% 0in /  0.0mm
07:44 70.2 °F /  21.2 °C 64.4 °F /  18 °C 30.1in /  1018.1hPa SO 3.6mph /  5.8km/h 6.9mph /  11.1km/h 82% 0in /  0.0mm
07:49 70.2 °F /  21.2 °C 64.2 °F /  17.9 °C 30.1in /  1018.1hPa SO 3.7mph /  5.9km/h 7mph /  11.3km/h 82% 0in /  0.0mm
07:54 70.2 °F /  21.2 °C 64.2 °F /  17.9 °C 30.1in /  1018.1hPa OSO 4mph /  6.5km/h 7mph /  11.3km/h 82% 0in /  0.0mm
07:59 70.2 °F /  21.2 °C 64.4 °F /  18 °C 30.1in /  1018.1hPa SO 3.8mph /  6.1km/h 6mph /  9.7km/h 82% 0in /  0.0mm
08:04 70.2 °F /  21.2 °C 64.4 °F /  18 °C 30.1in /  1018.4hPa OSO 3.1mph /  5km/h 6mph /  9.7km/h 81.9% 0in /  0.0mm
08:09 70.2 °F /  21.2 °C 64 °F /  17.8 °C 30.1in /  1018.4hPa OSO 3.1mph /  5km/h 6mph /  9.7km/h 81% 0in /  0.0mm
08:14 70.3 °F /  21.3 °C 64.2 °F /  17.9 °C 30.1in /  1018.4hPa SO 3.1mph /  5km/h 6mph /  9.7km/h 81% 0in /  0.0mm
08:19 70.3 °F /  21.3 °C 64.2 °F /  17.9 °C 30.1in /  1018.5hPa SO 3.1mph /  5km/h 6mph /  9.7km/h 81% 0in /  0.0mm
08:24 70.5 °F /  21.4 °C 64.4 °F /  18 °C 30.1in /  1018.5hPa SO 3.1mph /  5km/h 6.2mph /  10km/h 81% 0in /  0.0mm
08:29 70.5 °F /  21.4 °C 64.4 °F /  18 °C 30.1in /  1018.5hPa OSO 3.3mph /  5.3km/h 6.4mph /  10.3km/h 81% 0in /  0.0mm
08:34 70.7 °F /  21.5 °C 64.4 °F /  18 °C 30.1in /  1018.6hPa OSO 4mph /  6.5km/h 7mph /  11.3km/h 80.7% 0in /  0.0mm
08:39 70.9 °F /  21.6 °C 64.4 °F /  18 °C 30.1in /  1018.6hPa OSO 4mph /  6.5km/h 7mph /  11.3km/h 80% 0in /  0.0mm
08:44 70.9 °F /  21.6 °C 64.4 °F /  18 °C 30.1in /  1018.6hPa Oeste 4mph /  6.5km/h 7mph /  11.3km/h 80% 0in /  0.0mm
08:49 70.9 °F /  21.6 °C 64.4 °F /  18 °C 30.1in /  1018.6hPa OSO 4.1mph /  6.6km/h 6.9mph /  11.1km/h 80% 0in /  0.0mm
08:54 70.9 °F /  21.6 °C 64.4 °F /  18 °C 30.1in /  1018.6hPa OSO 4.3mph /  6.9km/h 8.1mph /  13km/h 80% 0in /  0.0mm
08:59 71.1 °F /  21.7 °C 64.4 °F /  18 °C 30.1in /  1018.6hPa OSO 4.3mph /  6.9km/h 8mph /  12.9km/h 79.4% 0in /  0.0mm
09:04 71.2 °F /  21.8 °C 64.4 °F /  18 °C 30.1in /  1018.8hPa OSO 4.3mph /  6.9km/h 8.5mph /  13.7km/h 79% 0in /  0.0mm
09:09 71.2 °F /  21.8 °C 64.6 °F /  18.1 °C 30.1in /  1018.8hPa OSO 4.4mph /  7.1km/h 9mph /  14.5km/h 79% 0in /  0.0mm
09:14 71.8 °F /  22.1 °C 64.6 °F /  18.1 °C 30.1in /  1018.8hPa OSO 4.7mph /  7.6km/h 7mph /  11.3km/h 77.9% 0in /  0.0mm
09:19 72.1 °F /  22.3 °C 64.4 °F /  18 °C 30.1in /  1018.8hPa SO 4.5mph /  7.3km/h 7mph /  11.3km/h 76.9% 0in /  0.0mm
09:24 72.3 °F /  22.4 °C 64.4 °F /  18 °C 30.1in /  1018.8hPa OSO 4mph /  6.5km/h 8.1mph /  13km/h 76.2% 0in /  0.0mm
09:29 72.7 °F /  22.6 °C 64.4 °F /  18 °C 30.1in /  1018.8hPa OSO 4.3mph /  6.9km/h 9.2mph /  14.8km/h 75.4% 0in /  0.0mm
09:34 72.9 °F /  22.7 °C 64.4 °F /  18 °C 30.1in /  1018.9hPa SO 5.2mph /  8.4km/h 9.2mph /  14.8km/h 74.9% 0in /  0.0mm
09:39 73 °F /  22.8 °C 64.2 °F /  17.9 °C 30.1in /  1018.9hPa SO 5.2mph /  8.4km/h 9mph /  14.5km/h 73.6% 0in /  0.0mm
09:44 73 °F /  22.8 °C 64.2 °F /  17.9 °C 30.1in /  1018.9hPa OSO 5.4mph /  8.7km/h 7mph /  11.3km/h 73.6% 0in /  0.0mm
09:49 73.2 °F /  22.9 °C 64 °F /  17.8 °C 30.1in /  1018.9hPa OSO 5mph /  8km/h 7.4mph /  11.9km/h 73% 0in /  0.0mm
09:54 73.6 °F /  23.1 °C 64.6 °F /  18.1 °C 30.1in /  1018.9hPa SO 3.6mph /  5.8km/h 7mph /  11.3km/h 73.2% 0in /  0.0mm
09:59 73.9 °F /  23.3 °C 64.2 °F /  17.9 °C 30.1in /  1018.9hPa SO 3.5mph /  5.6km/h 8.1mph /  13km/h 71.8% 0in /  0.0mm
10:04 74.1 °F /  23.4 °C 64.2 °F /  17.9 °C 30.1in /  1018.9hPa SO 3.1mph /  5km/h 8mph /  12.9km/h 71.5% 0in /  0.0mm
10:09 74.5 °F /  23.6 °C 64.6 °F /  18.1 °C 30.1in /  1018.9hPa SSO 3.3mph /  5.3km/h 8.1mph /  13km/h 71.4% 0in /  0.0mm
10:14 74.7 °F /  23.7 °C 64.6 °F /  18.1 °C 30.1in /  1018.9hPa SSO 4mph /  6.5km/h 8mph /  12.9km/h 71% 0in /  0.0mm
10:19 74.7 °F /  23.7 °C 64.6 °F /  18.1 °C 30.1in /  1019.0hPa OSO 4mph /  6.5km/h 7mph /  11.3km/h 70.6% 0in /  0.0mm
10:24 75 °F /  23.9 °C 64.6 °F /  18.1 °C 30.1in /  1019.0hPa OSO 4mph /  6.5km/h 7mph /  11.3km/h 70% 0in /  0.0mm
10:29 75.4 °F /  24.1 °C 64.4 °F /  18 °C 30.1in /  1019.0hPa OSO 3.9mph /  6.3km/h 7mph /  11.3km/h 69% 0in /  0.0mm
10:34 75.6 °F /  24.2 °C 64 °F /  17.8 °C 30.1in /  1019.0hPa Oeste 3.6mph /  5.8km/h 7.6mph /  12.2km/h 67.5% 0in /  0.0mm
10:39 75.7 °F /  24.3 °C 64 °F /  17.8 °C 30.1in /  1019.0hPa ONO 3.7mph /  5.9km/h 8.1mph /  13km/h 67% 0in /  0.0mm
10:44 75.7 °F /  24.3 °C 63.9 °F /  17.7 °C 30.1in /  1019.0hPa OSO 4mph /  6.5km/h 6.2mph /  10km/h 66.6% 0in /  0.0mm
10:49 76.1 °F /  24.5 °C 63.9 °F /  17.7 °C 30.1in /  1019.1hPa SO 4mph /  6.5km/h 6.9mph /  11.1km/h 66% 0in /  0.0mm
10:54 76.5 °F /  24.7 °C 64.2 °F /  17.9 °C 30.1in /  1019.1hPa SO 4mph /  6.5km/h 7mph /  11.3km/h 66% 0in /  0.0mm
10:59 76.8 °F /  24.9 °C 64.2 °F /  17.9 °C 30.1in /  1019.1hPa Oeste 3.5mph /  5.7km/h 6mph /  9.7km/h 65.2% 0in /  0.0mm
11:04 77.4 °F /  25.2 °C 64.6 °F /  18.1 °C 30.1in /  1019.1hPa North 2.4mph /  3.9km/h 6mph /  9.7km/h 64.8% 0in /  0.0mm
11:09 78.1 °F /  25.6 °C 64.6 °F /  18.1 °C 30.1in /  1018.8hPa SSO 2.2mph /  3.6km/h 4.6mph /  7.4km/h 63.1% 0in /  0.0mm
11:14 78.6 °F /  25.9 °C 64.2 °F /  17.9 °C 30.1in /  1018.8hPa SSE 1.8mph /  2.9km/h 5.2mph /  8.4km/h 61.3% 0in /  0.0mm
11:19 79 °F /  26.1 °C 64.4 °F /  18 °C 30.1in /  1018.8hPa Sur 2.2mph /  3.6km/h 6.9mph /  11.1km/h 61% 0in /  0.0mm
11:24 79.3 °F /  26.3 °C 64.4 °F /  18 °C 30.1in /  1018.8hPa SO 3.6mph /  5.8km/h 7mph /  11.3km/h 60.5% 0in /  0.0mm
11:29 79.5 °F /  26.4 °C 64.8 °F /  18.2 °C 30.1in /  1018.8hPa SSO 3.3mph /  5.3km/h 5.2mph /  8.4km/h 61% 0in /  0.0mm
11:34 79.9 °F /  26.6 °C 65.7 °F /  18.7 °C 30.1in /  1018.8hPa ENE 2.4mph /  3.9km/h 8.7mph /  14km/h 61.8% 0in /  0.0mm
11:39 80.2 °F /  26.8 °C 64.9 °F /  18.3 °C 30.1in /  1018.8hPa NE 2.5mph /  4.1km/h 9.2mph /  14.8km/h 59.7% 0in /  0.0mm
11:44 80.1 °F /  26.7 °C 64.9 °F /  18.3 °C 30.1in /  1018.8hPa NE 3.1mph /  5km/h 7mph /  11.3km/h 60.2% 0in /  0.0mm
11:49 80.1 °F /  26.7 °C 64.2 °F /  17.9 °C 30.1in /  1018.8hPa ENE 3.3mph /  5.3km/h 10.4mph /  16.7km/h 58.6% 0in /  0.0mm
11:54 80.2 °F /  26.8 °C 64 °F /  17.8 °C 30.1in /  1018.7hPa NNE 4mph /  6.5km/h 10.4mph /  16.7km/h 58% 0in /  0.0mm
11:59 80.4 °F /  26.9 °C 64 °F /  17.8 °C 30.1in /  1018.7hPa ENE 4.1mph /  6.6km/h 10mph /  16.1km/h 57.5% 0in /  0.0mm
12:04 81 °F /  27.2 °C 64.2 °F /  17.9 °C 30.1in /  1018.7hPa Este 4.3mph /  6.9km/h 9.2mph /  14.8km/h 56.7% 0in /  0.0mm
12:09 81.1 °F /  27.3 °C 63.3 °F /  17.4 °C 30.1in /  1018.7hPa ENE 4.4mph /  7.1km/h 10.2mph /  16.4km/h 54.6% 0in /  0.0mm
12:14 81 °F /  27.2 °C 62.4 °F /  16.9 °C 30.1in /  1018.7hPa Este 4.7mph /  7.6km/h 12.3mph /  19.8km/h 53.5% 0in /  0.0mm
12:19 80.8 °F /  27.1 °C 61.2 °F /  16.2 °C 30.1in /  1018.7hPa NE 5.1mph /  8.2km/h 13mph /  20.9km/h 51.3% 0in /  0.0mm
12:24 81 °F /  27.2 °C 61.5 °F /  16.4 °C 30.1in /  1018.6hPa NE 6.4mph /  10.3km/h 13mph /  20.9km/h 51.9% 0in /  0.0mm
12:29 81.7 °F /  27.6 °C 62.8 °F /  17.1 °C 30.1in /  1018.6hPa Este 5.6mph /  9km/h 8.1mph /  13km/h 53% 0in /  0.0mm
12:34 82 °F /  27.8 °C 62.2 °F /  16.8 °C 30.1in /  1018.6hPa ENE 2.9mph /  4.7km/h 10.7mph /  17.2km/h 51.2% 0in /  0.0mm
12:39 82.2 °F /  27.9 °C 61.9 °F /  16.6 °C 30.1in /  1018.5hPa NE 3.7mph /  6km/h 11.5mph /  18.5km/h 50.1% 0in /  0.0mm
12:44 82 °F /  27.8 °C 61.9 °F /  16.6 °C 30.1in /  1018.5hPa ENE 6.2mph /  10km/h 12mph /  19.3km/h 50.7% 0in /  0.0mm
12:49 82 °F /  27.8 °C 61.9 °F /  16.6 °C 30.1in /  1018.5hPa ESE 5.8mph /  9.4km/h 10.4mph /  16.7km/h 50.5% 0in /  0.0mm
12:54 82.8 °F /  28.2 °C 63 °F /  17.2 °C 30.1in /  1018.4hPa ENE 4.7mph /  7.6km/h 10mph /  16.1km/h 51.4% 0in /  0.0mm
12:59 82.9 °F /  28.3 °C 63.5 °F /  17.5 °C 30.1in /  1018.4hPa NNE 4.7mph /  7.6km/h 10mph /  16.1km/h 52.2% 0in /  0.0mm
13:04 82.9 °F /  28.3 °C 62.2 °F /  16.8 °C 30.1in /  1018.4hPa Este 4.7mph /  7.6km/h 9.2mph /  14.8km/h 49.7% 0in /  0.0mm
13:09 82.9 °F /  28.3 °C 62.1 °F /  16.7 °C 30.1in /  1018.2hPa NE 4.7mph /  7.6km/h 10.4mph /  16.7km/h 49.4% 0in /  0.0mm
13:14 83.3 °F /  28.5 °C 62.1 °F /  16.7 °C 30.1in /  1018.2hPa NE 4.7mph /  7.6km/h 10.4mph /  16.7km/h 49.1% 0in /  0.0mm
13:19 83.5 °F /  28.6 °C 61.9 °F /  16.6 °C 30.1in /  1018.2hPa ENE 5mph /  8.1km/h 11.5mph /  18.5km/h 48.2% 0in /  0.0mm
13:24 83.8 °F /  28.8 °C 61.3 °F /  16.3 °C 30.1in /  1018.0hPa Este 6.2mph /  10km/h 13mph /  20.9km/h 46.7% 0in /  0.0mm
13:29 83.8 °F /  28.8 °C 60.4 °F /  15.8 °C 30.1in /  1018.0hPa ENE 6.4mph /  10.3km/h 13mph /  20.9km/h 45.4% 0in /  0.0mm
13:34 83.8 °F /  28.8 °C 61.3 °F /  16.3 °C 30.1in /  1018.0hPa NE 6.9mph /  11.1km/h 12mph /  19.3km/h 46.8% 0in /  0.0mm
13:39 83.8 °F /  28.8 °C 60.6 °F /  15.9 °C 30.1in /  1017.9hPa NE 6.7mph /  10.8km/h 15mph /  24.1km/h 45.5% 0in /  0.0mm
13:44 84.2 °F /  29 °C 60.3 °F /  15.7 °C 30.1in /  1017.9hPa ENE 6.2mph /  10km/h 15mph /  24.1km/h 44.4% 0in /  0.0mm
13:49 84 °F /  28.9 °C 59.9 °F /  15.5 °C 30.1in /  1017.9hPa NE 6.5mph /  10.5km/h 16.3mph /  26.2km/h 44.1% 0in /  0.0mm
13:54 83.8 °F /  28.8 °C 60.3 °F /  15.7 °C 30.1in /  1017.8hPa ENE 7.4mph /  11.9km/h 16mph /  25.7km/h 45% 0in /  0.0mm
13:59 84.2 °F /  29 °C 59.9 °F /  15.5 °C 30.1in /  1017.8hPa Este 7.1mph /  11.4km/h 13.8mph /  22.2km/h 44.1% 0in /  0.0mm
14:04 84.6 °F /  29.2 °C 59.4 °F /  15.2 °C 30.1in /  1017.8hPa ENE 6.4mph /  10.3km/h 14mph /  22.5km/h 42.7% 0in /  0.0mm
14:09 84.7 °F /  29.3 °C 58.8 °F /  14.9 °C 30.1in /  1017.6hPa ENE 6.7mph /  10.8km/h 14mph /  22.5km/h 41.6% 0in /  0.0mm
14:14 84.7 °F /  29.3 °C 57.4 °F /  14.1 °C 30.1in /  1017.6hPa ENE 7.6mph /  12.2km/h 15mph /  24.1km/h 39.5% 0in /  0.0mm
14:19 84.7 °F /  29.3 °C 58.1 °F /  14.5 °C 30.1in /  1017.6hPa Este 7.8mph /  12.6km/h 15mph /  24.1km/h 40.6% 0in /  0.0mm
14:24 84.6 °F /  29.2 °C 59 °F /  15 °C 30.1in /  1017.6hPa Este 8.5mph /  13.7km/h 15.2mph /  24.5km/h 42% 0in /  0.0mm
14:29 84.6 °F /  29.2 °C 59.5 °F /  15.3 °C 30.1in /  1017.6hPa ENE 8.3mph /  13.3km/h 17.3mph /  27.8km/h 43.1% 0in /  0.0mm
14:34 84.6 °F /  29.2 °C 60.1 °F /  15.6 °C 30.1in /  1017.6hPa NE 7.6mph /  12.2km/h 17.5mph /  28.2km/h 43.5% 0in /  0.0mm
14:39 84.4 °F /  29.1 °C 58.6 °F /  14.8 °C 30in /  1017.3hPa ENE 7.9mph /  12.7km/h 17mph /  27.4km/h 41.8% 0in /  0.0mm
14:44 84.6 °F /  29.2 °C 59 °F /  15 °C 30in /  1017.3hPa ENE 8.7mph /  14km/h 14mph /  22.5km/h 42.2% 0in /  0.0mm
14:49 84.4 °F /  29.1 °C 59.7 °F /  15.4 °C 30in /  1017.3hPa NE 8.4mph /  13.6km/h 20.4mph /  32.8km/h 43.4% 0in /  0.0mm
14:54 84.2 °F /  29 °C 59.5 °F /  15.3 °C 30in /  1017.2hPa NE 7.6mph /  12.2km/h 21mph /  33.8km/h 43.4% 0in /  0.0mm
14:59 84.4 °F /  29.1 °C 59.2 °F /  15.1 °C 30in /  1017.2hPa ENE 7.9mph /  12.7km/h 16mph /  25.7km/h 42.7% 0in /  0.0mm
15:04 84.6 °F /  29.2 °C 60.1 °F /  15.6 °C 30in /  1017.2hPa ENE 8.7mph /  14km/h 18.1mph /  29.1km/h 43.7% 0in /  0.0mm
15:09 84.7 °F /  29.3 °C 58.3 °F /  14.6 °C 30in /  1017.0hPa NE 8.7mph /  14km/h 18.4mph /  29.6km/h 40.9% 0in /  0.0mm
15:14 84.7 °F /  29.3 °C 58.1 °F /  14.5 °C 30in /  1017.0hPa ENE 8.7mph /  14km/h 15mph /  24.1km/h 40.5% 0in /  0.0mm
15:19 85.3 °F /  29.6 °C 59.4 °F /  15.2 °C 30in /  1017.0hPa ENE 8.1mph /  13.1km/h 13mph /  20.9km/h 41.6% 0in /  0.0mm
15:24 85.3 °F /  29.6 °C 58.6 °F /  14.8 °C 30in /  1017.0hPa ENE 6.4mph /  10.3km/h 14.5mph /  23.3km/h 40.6% 0in /  0.0mm
15:29 84.7 °F /  29.3 °C 59.7 °F /  15.4 °C 30in /  1017.0hPa NE 7.1mph /  11.4km/h 20.7mph /  33.3km/h 42.9% 0in /  0.0mm
15:34 84.9 °F /  29.4 °C 60.1 °F /  15.6 °C 30in /  1017.0hPa Este 9.2mph /  14.8km/h 21mph /  33.8km/h 43.3% 0in /  0.0mm
15:39 85.3 °F /  29.6 °C 59.9 °F /  15.5 °C 30in /  1016.7hPa NE 8.8mph /  14.2km/h 16mph /  25.7km/h 42.5% 0in /  0.0mm
15:44 85.3 °F /  29.6 °C 59 °F /  15 °C 30in /  1016.7hPa NE 7.6mph /  12.2km/h 18.4mph /  29.6km/h 41% 0in /  0.0mm
15:49 85.3 °F /  29.6 °C 59.4 °F /  15.2 °C 30in /  1016.7hPa NE 7.8mph /  12.6km/h 18mph /  29km/h 41.5% 0in /  0.0mm
15:54 85.5 °F /  29.7 °C 60.1 °F /  15.6 °C 30in /  1016.5hPa ENE 8.5mph /  13.7km/h 14mph /  22.5km/h 42.5% 0in /  0.0mm
15:59 85.6 °F /  29.8 °C 60.1 °F /  15.6 °C 30in /  1016.5hPa NE 8.3mph /  13.3km/h 13.8mph /  22.2km/h 42.2% 0in /  0.0mm
16:04 85.6 °F /  29.8 °C 60.4 °F /  15.8 °C 30in /  1016.5hPa ENE 7.6mph /  12.2km/h 14mph /  22.5km/h 42.7% 0in /  0.0mm
16:09 85.6 °F /  29.8 °C 60.8 °F /  16 °C 30in /  1016.4hPa ENE 7.6mph /  12.2km/h 14mph /  22.5km/h 43.3% 0in /  0.0mm
16:14 85.5 °F /  29.7 °C 61 °F /  16.1 °C 30in /  1016.4hPa NE 7.6mph /  12.2km/h 15.2mph /  24.5km/h 43.9% 0in /  0.0mm
16:19 85.5 °F /  29.7 °C 61.5 °F /  16.4 °C 30in /  1016.4hPa Este 7.3mph /  11.8km/h 18.1mph /  29.1km/h 44.6% 0in /  0.0mm
16:24 85.3 °F /  29.6 °C 61.5 °F /  16.4 °C 30in /  1016.3hPa ENE 6.4mph /  10.3km/h 18.4mph /  29.6km/h 45% 0in /  0.0mm
16:29 84.9 °F /  29.4 °C 61.2 °F /  16.2 °C 30in /  1016.3hPa NE 7.5mph /  12km/h 18mph /  29km/h 44.8% 0in /  0.0mm
16:34 84.9 °F /  29.4 °C 61.2 °F /  16.2 °C 30in /  1016.3hPa ENE 10.7mph /  17.2km/h 16.1mph /  25.9km/h 44.9% 0in /  0.0mm
16:39 85.3 °F /  29.6 °C 61.5 °F /  16.4 °C 30in /  1016.2hPa ENE 10mph /  16.1km/h 14mph /  22.5km/h 45% 0in /  0.0mm
16:44 84.9 °F /  29.4 °C 61.7 °F /  16.5 °C 30in /  1016.2hPa NE 8.1mph /  13km/h 18.4mph /  29.6km/h 45.7% 0in /  0.0mm
16:49 84.9 °F /  29.4 °C 62.1 °F /  16.7 °C 30in /  1016.2hPa NE 8.4mph /  13.5km/h 18mph /  29km/h 46.3% 0in /  0.0mm
16:54 84.9 °F /  29.4 °C 61.9 °F /  16.6 °C 30in /  1016.1hPa NE 9.2mph /  14.8km/h 17mph /  27.4km/h 46.1% 0in /  0.0mm
16:59 85.1 °F /  29.5 °C 61.9 °F /  16.6 °C 30in /  1016.1hPa NE 8.9mph /  14.3km/h 16.1mph /  25.9km/h 45.8% 0in /  0.0mm
17:04 85.1 °F /  29.5 °C 62.4 °F /  16.9 °C 30in /  1016.1hPa ENE 8.1mph /  13km/h 16.3mph /  26.2km/h 46.9% 0in /  0.0mm
17:09 85.3 °F /  29.6 °C 62.8 °F /  17.1 °C 30in /  1016.0hPa NE 8.1mph /  13km/h 16.8mph /  27km/h 47.1% 0in /  0.0mm
17:14 84.9 °F /  29.4 °C 63.3 °F /  17.4 °C 30in /  1016.0hPa ENE 8.1mph /  13km/h 17mph /  27.4km/h 48.4% 0in /  0.0mm
17:19 84.7 °F /  29.3 °C 64 °F /  17.8 °C 30in /  1016.0hPa ENE 8.4mph /  13.5km/h 16.1mph /  25.9km/h 49.7% 0in /  0.0mm
17:24 84.7 °F /  29.3 °C 64 °F /  17.8 °C 30in /  1016.0hPa ENE 9.2mph /  14.8km/h 19mph /  30.6km/h 49.9% 0in /  0.0mm
17:29 84.7 °F /  29.3 °C 64.4 °F /  18 °C 30in /  1016.0hPa ENE 8.9mph /  14.4km/h 19mph /  30.6km/h 50.4% 0in /  0.0mm
17:34 85.1 °F /  29.5 °C 64.8 °F /  18.2 °C 30in /  1016.0hPa ENE 8.1mph /  13km/h 15.9mph /  25.6km/h 50.8% 0in /  0.0mm
17:39 84.7 °F /  29.3 °C 64.4 °F /  18 °C 30in /  1016.0hPa ENE 8mph /  12.8km/h 16.1mph /  25.9km/h 50.7% 0in /  0.0mm
17:44 84.2 °F /  29 °C 64.2 °F /  17.9 °C 30in /  1016.0hPa ENE 7.4mph /  11.9km/h 16mph /  25.7km/h 51.1% 0in /  0.0mm
17:49 84 °F /  28.9 °C 64.9 °F /  18.3 °C 30in /  1016.0hPa ENE 7.8mph /  12.6km/h 15mph /  24.1km/h 53% 0in /  0.0mm
17:54 83.8 °F /  28.8 °C 64.4 °F /  18 °C 30in /  1016.0hPa NE 9.2mph /  14.8km/h 17.3mph /  27.8km/h 52% 0in /  0.0mm
17:59 83.8 °F /  28.8 °C 64.2 °F /  17.9 °C 30in /  1016.0hPa ENE 8.9mph /  14.3km/h 17mph /  27.4km/h 51.6% 0in /  0.0mm
18:04 83.8 °F /  28.8 °C 63.3 °F /  17.4 °C 30in /  1016.0hPa NE 8.1mph /  13km/h 16.1mph /  25.9km/h 50% 0in /  0.0mm
18:09 83.8 °F /  28.8 °C 61.7 °F /  16.5 °C 30in /  1015.9hPa NE 8.6mph /  13.9km/h 16.1mph /  25.9km/h 47.4% 0in /  0.0mm
18:14 83.8 °F /  28.8 °C 62.6 °F /  17 °C 30in /  1015.9hPa ENE 10.2mph /  16.4km/h 20.7mph /  33.3km/h 49% 0in /  0.0mm
18:19 83.8 °F /  28.8 °C 62.2 °F /  16.8 °C 30in /  1015.9hPa NE 9.9mph /  16km/h 21mph /  33.8km/h 48.3% 0in /  0.0mm
18:24 83.7 °F /  28.7 °C 63.7 °F /  17.6 °C 30in /  1015.8hPa NE 9.2mph /  14.8km/h 18mph /  29km/h 51.3% 0in /  0.0mm
18:29 83.5 °F /  28.6 °C 63.7 °F /  17.6 °C 30in /  1015.8hPa NE 9.4mph /  15.2km/h 17.3mph /  27.8km/h 51.4% 0in /  0.0mm
18:34 83.3 °F /  28.5 °C 63.1 °F /  17.3 °C 30in /  1015.9hPa NE 10.2mph /  16.4km/h 17.3mph /  27.8km/h 50.8% 0in /  0.0mm
18:39 83.1 °F /  28.4 °C 63.3 °F /  17.4 °C 30in /  1015.9hPa NE 10.2mph /  16.4km/h 18.5mph /  29.8km/h 51.5% 0in /  0.0mm
18:44 83.1 °F /  28.4 °C 62.6 °F /  17 °C 30in /  1015.9hPa NE 10.2mph /  16.4km/h 19mph /  30.6km/h 50.1% 0in /  0.0mm
18:49 83.1 °F /  28.4 °C 62.1 °F /  16.7 °C 30in /  1015.9hPa NE 10.4mph /  16.8km/h 20.8mph /  33.5km/h 49.2% 0in /  0.0mm
18:54 82.9 °F /  28.3 °C 62.1 °F /  16.7 °C 30in /  1015.8hPa NE 11.2mph /  18km/h 21mph /  33.8km/h 49.3% 0in /  0.0mm
18:59 82.9 °F /  28.3 °C 61.9 °F /  16.6 °C 30in /  1015.8hPa NE 10.9mph /  17.6km/h 17.3mph /  27.8km/h 49% 0in /  0.0mm
19:04 82.9 °F /  28.3 °C 61.7 °F /  16.5 °C 30in /  1015.8hPa ENE 10.2mph /  16.4km/h 17mph /  27.4km/h 48.8% 0in /  0.0mm
19:09 82.9 °F /  28.3 °C 61.5 °F /  16.4 °C 30in /  1015.8hPa NE 9.8mph /  15.8km/h 16.1mph /  25.9km/h 48.7% 0in /  0.0mm
19:14 82.9 °F /  28.3 °C 61.2 °F /  16.2 °C 30in /  1015.8hPa NE 8.7mph /  14km/h 16.3mph /  26.2km/h 48.1% 0in /  0.0mm
19:19 82.8 °F /  28.2 °C 62.2 °F /  16.8 °C 30in /  1015.8hPa NE 8.8mph /  14.2km/h 16mph /  25.7km/h 49.9% 0in /  0.0mm
19:24 82.8 °F /  28.2 °C 62.1 °F /  16.7 °C 30in /  1015.8hPa NE 9.2mph /  14.8km/h 16.1mph /  25.9km/h 49.8% 0in /  0.0mm
19:29 82.6 °F /  28.1 °C 61.3 °F /  16.3 °C 30in /  1015.8hPa NE 9mph /  14.5km/h 16mph /  25.7km/h 48.7% 0in /  0.0mm
19:34 82.6 °F /  28.1 °C 61.5 °F /  16.4 °C 30in /  1015.8hPa NE 8.5mph /  13.7km/h 16.1mph /  25.9km/h 48.9% 0in /  0.0mm
19:39 82.4 °F /  28 °C 62.4 °F /  16.9 °C 30in /  1015.8hPa ENE 8.4mph /  13.5km/h 16mph /  25.7km/h 50.9% 0in /  0.0mm
19:44 82 °F /  27.8 °C 62.8 °F /  17.1 °C 30in /  1015.8hPa NE 8.1mph /  13km/h 15mph /  24.1km/h 52% 0in /  0.0mm
19:49 81.9 °F /  27.7 °C 62.2 °F /  16.8 °C 30in /  1015.8hPa NE 8.3mph /  13.3km/h 15mph /  24.1km/h 51.6% 0in /  0.0mm
19:54 81.9 °F /  27.7 °C 62.6 °F /  17 °C 30in /  1015.8hPa NE 8.7mph /  14km/h 17.3mph /  27.8km/h 52.2% 0in /  0.0mm
19:59 81.5 °F /  27.5 °C 63.1 °F /  17.3 °C 30in /  1015.8hPa NE 8.8mph /  14.2km/h 17mph /  27.4km/h 53.5% 0in /  0.0mm
20:04 81.3 °F /  27.4 °C 63.1 °F /  17.3 °C 30in /  1015.9hPa NE 9.2mph /  14.8km/h 17.3mph /  27.8km/h 54% 0in /  0.0mm
20:09 81.1 °F /  27.3 °C 63.7 °F /  17.6 °C 30in /  1015.9hPa NE 9mph /  14.5km/h 16.1mph /  25.9km/h 55.1% 0in /  0.0mm
20:14 81.1 °F /  27.3 °C 64 °F /  17.8 °C 30in /  1015.9hPa ENE 8.5mph /  13.7km/h 16mph /  25.7km/h 56.2% 0in /  0.0mm
20:19 81 °F /  27.2 °C 64.4 °F /  18 °C 30in /  1016.0hPa NE 7.8mph /  12.6km/h 12mph /  19.3km/h 57% 0in /  0.0mm
20:24 81 °F /  27.2 °C 64.6 °F /  18.1 °C 30in /  1016.0hPa NE 5.9mph /  9.5km/h 12.7mph /  20.4km/h 57.6% 0in /  0.0mm
20:29 80.6 °F /  27 °C 64.6 °F /  18.1 °C 30in /  1016.0hPa ENE 5.9mph /  9.5km/h 13mph /  20.9km/h 58.3% 0in /  0.0mm
20:34 80.4 °F /  26.9 °C 64.9 °F /  18.3 °C 30in /  1016.0hPa NE 5.9mph /  9.5km/h 10.4mph /  16.7km/h 59.2% 0in /  0.0mm
20:39 80.2 °F /  26.8 °C 65.1 °F /  18.4 °C 30in /  1016.0hPa ENE 5.5mph /  8.9km/h 10mph /  16.1km/h 60.2% 0in /  0.0mm
20:44 80.1 °F /  26.7 °C 65.5 °F /  18.6 °C 30in /  1016.0hPa ENE 4.3mph /  6.9km/h 10.4mph /  16.7km/h 61.5% 0in /  0.0mm
20:49 79.7 °F /  26.5 °C 65.7 °F /  18.7 °C 30in /  1016.1hPa NE 4.6mph /  7.4km/h 10.7mph /  17.2km/h 62.4% 0in /  0.0mm
20:54 79.3 °F /  26.3 °C 65.8 °F /  18.8 °C 30in /  1016.1hPa NE 5.4mph /  8.7km/h 11mph /  17.7km/h 63.3% 0in /  0.0mm
20:59 79.2 °F /  26.2 °C 66 °F /  18.9 °C 30in /  1016.1hPa NE 5.5mph /  8.9km/h 10.4mph /  16.7km/h 64.1% 0in /  0.0mm
21:04 79 °F /  26.1 °C 66.2 °F /  19 °C 30in /  1016.3hPa NE 5.9mph /  9.5km/h 10mph /  16.1km/h 65% 0in /  0.0mm
21:09 78.8 °F /  26 °C 66.4 °F /  19.1 °C 30in /  1016.3hPa NE 6mph /  9.6km/h 10mph /  16.1km/h 65.7% 0in /  0.0mm
21:14 78.6 °F /  25.9 °C 66.4 °F /  19.1 °C 30in /  1016.3hPa NE 6.2mph /  10km/h 9mph /  14.5km/h 66% 0in /  0.0mm
21:19 78.4 °F /  25.8 °C 66.6 °F /  19.2 °C 30in /  1016.4hPa NE 5.8mph /  9.4km/h 8.5mph /  13.7km/h 66.9% 0in /  0.0mm
21:24 78.3 °F /  25.7 °C 66.7 °F /  19.3 °C 30in /  1016.4hPa NE 4.7mph /  7.6km/h 9.2mph /  14.8km/h 67.8% 0in /  0.0mm
21:29 78.1 °F /  25.6 °C 66.9 °F /  19.4 °C 30in /  1016.4hPa NE 5mph /  8.1km/h 9.2mph /  14.8km/h 68.7% 0in /  0.0mm
21:34 77.9 °F /  25.5 °C 66.9 °F /  19.4 °C 30in /  1016.6hPa NE 5.9mph /  9.5km/h 9mph /  14.5km/h 69.2% 0in /  0.0mm
21:39 77.7 °F /  25.4 °C 67.3 °F /  19.6 °C 30in /  1016.6hPa NE 5.7mph /  9.2km/h 9.7mph /  15.6km/h 70% 0in /  0.0mm
21:44 77.7 °F /  25.4 °C 67.1 °F /  19.5 °C 30in /  1016.6hPa NE 5.2mph /  8.4km/h 10mph /  16.1km/h 70% 0in /  0.0mm
21:49 77.5 °F /  25.3 °C 66.9 °F /  19.4 °C 30in /  1016.8hPa NE 5.2mph /  8.4km/h 9.7mph /  15.6km/h 70% 0in /  0.0mm
21:54 77.5 °F /  25.3 °C 67.3 °F /  19.6 °C 30in /  1016.8hPa NE 5.4mph /  8.7km/h 10mph /  16.1km/h 70.8% 0in /  0.0mm
21:59 77.5 °F /  25.3 °C 67.5 °F /  19.7 °C 30in /  1016.8hPa NE 5.4mph /  8.7km/h 8.5mph /  13.7km/h 71% 0in /  0.0mm
22:04 77.5 °F /  25.3 °C 67.5 °F /  19.7 °C 30in /  1016.9hPa NE 5.4mph /  8.7km/h 9mph /  14.5km/h 71% 0in /  0.0mm
22:09 77.5 °F /  25.3 °C 67.3 °F /  19.6 °C 30in /  1016.9hPa NE 5.3mph /  8.6km/h 8mph /  12.9km/h 71% 0in /  0.0mm
22:14 77.4 °F /  25.2 °C 67.3 °F /  19.6 °C 30in /  1016.9hPa NE 5.2mph /  8.4km/h 7.4mph /  11.9km/h 71% 0in /  0.0mm
22:19 77.4 °F /  25.2 °C 67.3 °F /  19.6 °C 30in /  1017.0hPa NE 5mph /  8km/h 7mph /  11.3km/h 71% 0in /  0.0mm
22:24 77.4 °F /  25.2 °C 67.3 °F /  19.6 °C 30in /  1017.0hPa NE 4.3mph /  6.9km/h 7mph /  11.3km/h 71% 0in /  0.0mm
22:29 77.4 °F /  25.2 °C 67.1 °F /  19.5 °C 30in /  1017.0hPa NE 4mph /  6.4km/h 5mph /  8km/h 71% 0in /  0.0mm
22:34 77.2 °F /  25.1 °C 66.9 °F /  19.4 °C 30in /  1017.0hPa NE 2.9mph /  4.7km/h 5.2mph /  8.4km/h 71% 0in /  0.0mm
22:39 77.2 °F /  25.1 °C 67.3 °F /  19.6 °C 30in /  1017.0hPa NE 2.9mph /  4.7km/h 5mph /  8km/h 71.5% 0in /  0.0mm
22:44 77.2 °F /  25.1 °C 67.5 °F /  19.7 °C 30in /  1017.0hPa NNE 2.9mph /  4.7km/h 5mph /  8km/h 72% 0in /  0.0mm
22:49 77 °F /  25 °C 67.3 °F /  19.6 °C 30in /  1017.0hPa NE 2.7mph /  4.4km/h 5mph /  8km/h 72% 0in /  0.0mm
22:54 77 °F /  25 °C 67.3 °F /  19.6 °C 30in /  1017.0hPa NE 2.4mph /  3.9km/h 5mph /  8km/h 72% 0in /  0.0mm
22:59 76.8 °F /  24.9 °C 67.1 °F /  19.5 °C 30in /  1017.0hPa ENE 2.4mph /  3.9km/h 5mph /  8km/h 72% 0in /  0.0mm
23:04 76.8 °F /  24.9 °C 67.1 °F /  19.5 °C 30in /  1017.0hPa ENE 2.4mph /  3.9km/h 5mph /  8km/h 72% 0in /  0.0mm
23:09 76.8 °F /  24.9 °C 67.1 °F /  19.5 °C 30in /  1017.0hPa NE 1.9mph /  3km/h 2.3mph /  3.7km/h 72% 0in /  0.0mm
23:14 76.8 °F /  24.9 °C 67.5 °F /  19.7 °C 30in /  1017.0hPa Calm   2.3mph /  3.7km/h 72.8% 0in /  0.0mm
23:19 76.6 °F /  24.8 °C 67.3 °F /  19.6 °C 30in /  1017.1hPa Calm   2mph /  3.2km/h 73% 0in /  0.0mm
23:24 76.6 °F /  24.8 °C 67.3 °F /  19.6 °C 30in /  1017.1hPa Calm   2.3mph /  3.7km/h 73% 0in /  0.0mm
23:29 76.6 °F /  24.8 °C 67.3 °F /  19.6 °C 30in /  1017.1hPa Calm   2.3mph /  3.7km/h 73% 0in /  0.0mm
23:34 76.6 °F /  24.8 °C 67.3 °F /  19.6 °C 30in /  1017.1hPa Calm   2.3mph /  3.7km/h 73% 0in /  0.0mm
23:39 76.6 °F /  24.8 °C 67.3 °F /  19.6 °C 30in /  1017.0hPa Calm   2.3mph /  3.7km/h 73% 0in /  0.0mm
23:44 76.6 °F /  24.8 °C 67.3 °F /  19.6 °C 30in /  1017.0hPa Calm   2.9mph /  4.7km/h 73% 0in /  0.0mm
23:49 76.6 °F /  24.8 °C 67.3 °F /  19.6 °C 30in /  1017.0hPa Calm   3mph /  4.8km/h 73% 0in /  0.0mm
23:54 76.5 °F /  24.7 °C 67.3 °F /  19.6 °C 30in /  1016.9hPa Calm     73% 0in /  0.0mm
23:59 76.5 °F /  24.7 °C 67.3 °F /  19.6 °C 30in /  1016.9hPa Calm     73% 0in /  0.0mm
Murcia-Puente Tocinos, España
Compliments of Weather Underground - 3 mb

La estación de MeteoMurcia.com, publica sus datos en los siguientes proyectos:

Weather Underground PWS IMURCIAP2 Meteoclimatic www.awekas.at

W3Counter
Web Analytics